sensor_id;sensor_type;location;lat;lon;timestamp;P1;durP1;ratioP1;P2;durP2;ratioP2
49840;SDS011;35738;49.890;5.930;2023-04-03T00:00:31;4.73;;;2.60;;
49840;SDS011;35738;49.890;5.930;2023-04-03T00:02:58;2.90;;;2.30;;
49840;SDS011;35738;49.890;5.930;2023-04-03T00:05:24;3.07;;;2.30;;
49840;SDS011;35738;49.890;5.930;2023-04-03T00:07:51;3.40;;;2.40;;
49840;SDS011;35738;49.890;5.930;2023-04-03T00:10:18;2.30;;;2.10;;
49840;SDS011;35738;49.890;5.930;2023-04-03T00:12:44;3.20;;;2.27;;
49840;SDS011;35738;49.890;5.930;2023-04-03T00:15:11;2.00;;;1.80;;
49840;SDS011;35738;49.890;5.930;2023-04-03T00:17:38;2.33;;;2.13;;
49840;SDS011;35738;49.890;5.930;2023-04-03T00:20:05;3.67;;;2.47;;
49840;SDS011;35738;49.890;5.930;2023-04-03T00:22:31;3.43;;;2.30;;
49840;SDS011;35738;49.890;5.930;2023-04-03T00:24:58;3.10;;;2.13;;
49840;SDS011;35738;49.890;5.930;2023-04-03T00:27:24;3.33;;;1.97;;
49840;SDS011;35738;49.890;5.930;2023-04-03T00:29:51;3.40;;;2.30;;
49840;SDS011;35738;49.890;5.930;2023-04-03T00:32:18;5.30;;;2.50;;
49840;SDS011;35738;49.890;5.930;2023-04-03T00:34:44;2.73;;;2.00;;
49840;SDS011;35738;49.890;5.930;2023-04-03T00:37:11;2.90;;;2.13;;
49840;SDS011;35738;49.890;5.930;2023-04-03T00:39:37;3.33;;;2.27;;
49840;SDS011;35738;49.890;5.930;2023-04-03T00:42:04;3.10;;;2.43;;
49840;SDS011;35738;49.890;5.930;2023-04-03T00:47:00;3.23;;;2.20;;
49840;SDS011;35738;49.890;5.930;2023-04-03T00:49:29;3.23;;;2.20;;
49840;SDS011;35738;49.890;5.930;2023-04-03T00:51:56;2.47;;;2.10;;
49840;SDS011;35738;49.890;5.930;2023-04-03T00:54:24;5.37;;;2.03;;
49840;SDS011;35738;49.890;5.930;2023-04-03T00:56:52;3.10;;;2.00;;
49840;SDS011;35738;49.890;5.930;2023-04-03T00:59:22;3.00;;;2.17;;
49840;SDS011;35738;49.890;5.930;2023-04-03T01:01:53;3.17;;;2.13;;
49840;SDS011;35738;49.890;5.930;2023-04-03T01:04:28;3.60;;;2.20;;
49840;SDS011;35738;49.890;5.930;2023-04-03T01:07:00;5.07;;;1.90;;
49840;SDS011;35738;49.890;5.930;2023-04-03T01:09:49;4.27;;;2.20;;
49840;SDS011;35738;49.890;5.930;2023-04-03T01:12:21;4.80;;;2.20;;
49840;SDS011;35738;49.890;5.930;2023-04-03T01:14:55;4.13;;;2.20;;
49840;SDS011;35738;49.890;5.930;2023-04-03T01:17:27;2.40;;;2.03;;
49840;SDS011;35738;49.890;5.930;2023-04-03T01:20:01;4.47;;;1.90;;
49840;SDS011;35738;49.890;5.930;2023-04-03T01:25:39;2.67;;;2.20;;
49840;SDS011;35738;49.890;5.930;2023-04-03T01:28:12;4.43;;;2.20;;
49840;SDS011;35738;49.890;5.930;2023-04-03T01:33:22;3.43;;;2.13;;
49840;SDS011;35738;49.890;5.930;2023-04-03T01:35:49;3.03;;;2.00;;
49840;SDS011;35738;49.890;5.930;2023-04-03T01:38:15;2.40;;;2.20;;
49840;SDS011;35738;49.890;5.930;2023-04-03T01:40:42;3.77;;;2.60;;
49840;SDS011;35738;49.890;5.930;2023-04-03T01:43:08;2.80;;;2.13;;
49840;SDS011;35738;49.890;5.930;2023-04-03T01:45:35;6.03;;;2.13;;
49840;SDS011;35738;49.890;5.930;2023-04-03T01:48:02;3.07;;;2.00;;
49840;SDS011;35738;49.890;5.930;2023-04-03T01:50:28;7.20;;;2.43;;
49840;SDS011;35738;49.890;5.930;2023-04-03T01:52:55;2.33;;;1.97;;
49840;SDS011;35738;49.890;5.930;2023-04-03T01:55:21;4.37;;;2.43;;
49840;SDS011;35738;49.890;5.930;2023-04-03T01:57:48;2.53;;;2.13;;
49840;SDS011;35738;49.890;5.930;2023-04-03T02:00:14;3.07;;;2.00;;
49840;SDS011;35738;49.890;5.930;2023-04-03T02:02:41;5.43;;;2.17;;
49840;SDS011;35738;49.890;5.930;2023-04-03T02:05:08;5.70;;;2.50;;
49840;SDS011;35738;49.890;5.930;2023-04-03T02:07:35;3.37;;;2.10;;
49840;SDS011;35738;49.890;5.930;2023-04-03T02:10:02;2.63;;;2.27;;
49840;SDS011;35738;49.890;5.930;2023-04-03T02:12:29;2.17;;;1.97;;
49840;SDS011;35738;49.890;5.930;2023-04-03T02:14:55;3.20;;;2.20;;
49840;SDS011;35738;49.890;5.930;2023-04-03T02:17:22;4.53;;;2.10;;
49840;SDS011;35738;49.890;5.930;2023-04-03T02:19:48;3.17;;;2.20;;
49840;SDS011;35738;49.890;5.930;2023-04-03T02:22:15;3.63;;;2.10;;
49840;SDS011;35738;49.890;5.930;2023-04-03T02:24:41;2.37;;;2.00;;
49840;SDS011;35738;49.890;5.930;2023-04-03T02:27:08;5.37;;;2.20;;
49840;SDS011;35738;49.890;5.930;2023-04-03T02:29:34;3.97;;;2.20;;
49840;SDS011;35738;49.890;5.930;2023-04-03T02:32:01;6.77;;;2.60;;
49840;SDS011;35738;49.890;5.930;2023-04-03T02:34:27;3.27;;;2.20;;
49840;SDS011;35738;49.890;5.930;2023-04-03T02:36:54;5.07;;;2.13;;
49840;SDS011;35738;49.890;5.930;2023-04-03T02:39:20;4.27;;;2.20;;
49840;SDS011;35738;49.890;5.930;2023-04-03T02:41:47;2.70;;;1.97;;
49840;SDS011;35738;49.890;5.930;2023-04-03T02:44:13;2.40;;;2.20;;
49840;SDS011;35738;49.890;5.930;2023-04-03T02:46:40;4.53;;;2.47;;
49840;SDS011;35738;49.890;5.930;2023-04-03T02:49:07;3.23;;;2.10;;
49840;SDS011;35738;49.890;5.930;2023-04-03T02:51:33;3.10;;;2.13;;
49840;SDS011;35738;49.890;5.930;2023-04-03T02:54:00;3.90;;;2.20;;
49840;SDS011;35738;49.890;5.930;2023-04-03T02:56:26;3.80;;;2.40;;
49840;SDS011;35738;49.890;5.930;2023-04-03T02:58:53;3.43;;;2.30;;
49840;SDS011;35738;49.890;5.930;2023-04-03T03:01:20;4.83;;;2.20;;
49840;SDS011;35738;49.890;5.930;2023-04-03T03:03:46;4.17;;;2.13;;
49840;SDS011;35738;49.890;5.930;2023-04-03T03:06:14;5.83;;;2.07;;
49840;SDS011;35738;49.890;5.930;2023-04-03T03:08:42;4.07;;;2.33;;
49840;SDS011;35738;49.890;5.930;2023-04-03T03:11:09;2.73;;;2.10;;
49840;SDS011;35738;49.890;5.930;2023-04-03T03:13:36;4.20;;;2.13;;
49840;SDS011;35738;49.890;5.930;2023-04-03T03:16:03;4.70;;;2.03;;
49840;SDS011;35738;49.890;5.930;2023-04-03T03:18:30;2.70;;;2.10;;
49840;SDS011;35738;49.890;5.930;2023-04-03T03:20:57;4.43;;;2.13;;
49840;SDS011;35738;49.890;5.930;2023-04-03T03:23:26;5.00;;;2.40;;
49840;SDS011;35738;49.890;5.930;2023-04-03T03:25:55;2.50;;;2.30;;
49840;SDS011;35738;49.890;5.930;2023-04-03T03:28:22;3.80;;;2.33;;
49840;SDS011;35738;49.890;5.930;2023-04-03T03:30:49;5.87;;;2.30;;
49840;SDS011;35738;49.890;5.930;2023-04-03T03:33:16;2.67;;;2.13;;
49840;SDS011;35738;49.890;5.930;2023-04-03T03:35:43;6.47;;;2.40;;
49840;SDS011;35738;49.890;5.930;2023-04-03T03:38:10;4.93;;;2.23;;
49840;SDS011;35738;49.890;5.930;2023-04-03T03:40:36;4.27;;;2.40;;
49840;SDS011;35738;49.890;5.930;2023-04-03T03:43:03;4.27;;;2.23;;
49840;SDS011;35738;49.890;5.930;2023-04-03T03:45:30;6.70;;;2.30;;
49840;SDS011;35738;49.890;5.930;2023-04-03T03:47:57;4.30;;;2.23;;
49840;SDS011;35738;49.890;5.930;2023-04-03T03:50:23;3.50;;;2.27;;
49840;SDS011;35738;49.890;5.930;2023-04-03T03:52:50;2.57;;;2.37;;
49840;SDS011;35738;49.890;5.930;2023-04-03T03:55:17;4.77;;;2.33;;
49840;SDS011;35738;49.890;5.930;2023-04-03T03:57:43;4.33;;;2.20;;
49840;SDS011;35738;49.890;5.930;2023-04-03T04:00:10;10.43;;;2.57;;
49840;SDS011;35738;49.890;5.930;2023-04-03T04:02:37;2.23;;;2.03;;
49840;SDS011;35738;49.890;5.930;2023-04-03T04:05:04;4.70;;;2.30;;
49840;SDS011;35738;49.890;5.930;2023-04-03T04:07:31;5.17;;;2.20;;
49840;SDS011;35738;49.890;5.930;2023-04-03T04:09:57;2.43;;;2.17;;
49840;SDS011;35738;49.890;5.930;2023-04-03T04:12:24;2.30;;;2.10;;
49840;SDS011;35738;49.890;5.930;2023-04-03T04:14:50;2.83;;;2.20;;
49840;SDS011;35738;49.890;5.930;2023-04-03T04:17:17;3.03;;;2.30;;
49840;SDS011;35738;49.890;5.930;2023-04-03T04:19:44;3.53;;;2.23;;
49840;SDS011;35738;49.890;5.930;2023-04-03T04:22:10;5.27;;;2.20;;
49840;SDS011;35738;49.890;5.930;2023-04-03T04:24:37;4.03;;;2.40;;
49840;SDS011;35738;49.890;5.930;2023-04-03T04:27:05;2.90;;;2.30;;
49840;SDS011;35738;49.890;5.930;2023-04-03T04:29:31;2.57;;;2.37;;
49840;SDS011;35738;49.890;5.930;2023-04-03T04:32:04;3.43;;;2.17;;
49840;SDS011;35738;49.890;5.930;2023-04-03T04:34:31;3.53;;;2.30;;
49840;SDS011;35738;49.890;5.930;2023-04-03T04:36:57;2.70;;;2.00;;
49840;SDS011;35738;49.890;5.930;2023-04-03T04:39:24;3.63;;;2.40;;
49840;SDS011;35738;49.890;5.930;2023-04-03T04:41:50;5.83;;;2.17;;
49840;SDS011;35738;49.890;5.930;2023-04-03T04:44:17;5.37;;;2.20;;
49840;SDS011;35738;49.890;5.930;2023-04-03T04:46:44;3.53;;;2.30;;
49840;SDS011;35738;49.890;5.930;2023-04-03T04:49:10;4.17;;;2.00;;
49840;SDS011;35738;49.890;5.930;2023-04-03T04:51:36;4.83;;;2.13;;
49840;SDS011;35738;49.890;5.930;2023-04-03T04:54:17;5.00;;;2.17;;
49840;SDS011;35738;49.890;5.930;2023-04-03T04:56:43;3.20;;;2.33;;
49840;SDS011;35738;49.890;5.930;2023-04-03T04:59:10;4.10;;;2.10;;
49840;SDS011;35738;49.890;5.930;2023-04-03T05:01:36;5.30;;;2.23;;
49840;SDS011;35738;49.890;5.930;2023-04-03T05:04:03;3.70;;;2.30;;
49840;SDS011;35738;49.890;5.930;2023-04-03T05:06:29;12.70;;;6.90;;
49840;SDS011;35738;49.890;5.930;2023-04-03T05:08:58;642.37;;;187.63;;
49840;SDS011;35738;49.890;5.930;2023-04-03T05:11:25;61.13;;;35.53;;
49840;SDS011;35738;49.890;5.930;2023-04-03T05:13:51;82.23;;;40.73;;
49840;SDS011;35738;49.890;5.930;2023-04-03T05:16:18;170.27;;;74.40;;
49840;SDS011;35738;49.890;5.930;2023-04-03T05:18:45;76.70;;;36.23;;
49840;SDS011;35738;49.890;5.930;2023-04-03T05:21:11;423.67;;;200.63;;
49840;SDS011;35738;49.890;5.930;2023-04-03T05:23:38;268.57;;;132.53;;
49840;SDS011;35738;49.890;5.930;2023-04-03T05:26:04;237.93;;;118.80;;
49840;SDS011;35738;49.890;5.930;2023-04-03T05:28:31;211.97;;;114.20;;
49840;SDS011;35738;49.890;5.930;2023-04-03T05:30:58;44.47;;;28.70;;
49840;SDS011;35738;49.890;5.930;2023-04-03T05:33:25;20.50;;;14.37;;
49840;SDS011;35738;49.890;5.930;2023-04-03T05:35:52;26.03;;;18.77;;
49840;SDS011;35738;49.890;5.930;2023-04-03T05:38:20;19.83;;;14.10;;
49840;SDS011;35738;49.890;5.930;2023-04-03T05:40:47;27.30;;;20.90;;
49840;SDS011;35738;49.890;5.930;2023-04-03T05:43:13;7.53;;;6.77;;
49840;SDS011;35738;49.890;5.930;2023-04-03T05:45:40;10.47;;;8.87;;
49840;SDS011;35738;49.890;5.930;2023-04-03T05:48:11;5.67;;;5.07;;
49840;SDS011;35738;49.890;5.930;2023-04-03T05:50:39;5.53;;;3.80;;
49840;SDS011;35738;49.890;5.930;2023-04-03T05:53:10;3.47;;;2.80;;
49840;SDS011;35738;49.890;5.930;2023-04-03T05:55:47;3.50;;;2.43;;
49840;SDS011;35738;49.890;5.930;2023-04-03T05:58:13;5.00;;;2.40;;
49840;SDS011;35738;49.890;5.930;2023-04-03T06:00:40;3.63;;;2.23;;
49840;SDS011;35738;49.890;5.930;2023-04-03T06:03:07;2.50;;;1.90;;
49840;SDS011;35738;49.890;5.930;2023-04-03T06:05:34;4.57;;;2.10;;
49840;SDS011;35738;49.890;5.930;2023-04-03T06:08:02;3.80;;;2.30;;
49840;SDS011;35738;49.890;5.930;2023-04-03T06:10:29;2.97;;;2.20;;
49840;SDS011;35738;49.890;5.930;2023-04-03T06:12:56;4.90;;;2.07;;
49840;SDS011;35738;49.890;5.930;2023-04-03T06:15:23;5.93;;;2.57;;
49840;SDS011;35738;49.890;5.930;2023-04-03T06:17:49;4.90;;;2.20;;
49840;SDS011;35738;49.890;5.930;2023-04-03T06:20:16;3.17;;;2.00;;
49840;SDS011;35738;49.890;5.930;2023-04-03T06:22:42;3.83;;;2.20;;
49840;SDS011;35738;49.890;5.930;2023-04-03T06:25:09;20.23;;;9.93;;
49840;SDS011;35738;49.890;5.930;2023-04-03T06:27:36;13.27;;;7.30;;
49840;SDS011;35738;49.890;5.930;2023-04-03T06:30:03;27.67;;;13.53;;
49840;SDS011;35738;49.890;5.930;2023-04-03T06:32:30;19.67;;;10.27;;
49840;SDS011;35738;49.890;5.930;2023-04-03T06:34:57;40.33;;;18.70;;
49840;SDS011;35738;49.890;5.930;2023-04-03T06:37:24;6.13;;;3.00;;
49840;SDS011;35738;49.890;5.930;2023-04-03T06:39:55;37.17;;;18.27;;
49840;SDS011;35738;49.890;5.930;2023-04-03T06:42:22;38.40;;;18.70;;
49840;SDS011;35738;49.890;5.930;2023-04-03T06:44:49;33.63;;;16.00;;
49840;SDS011;35738;49.890;5.930;2023-04-03T06:47:16;4.13;;;2.60;;
49840;SDS011;35738;49.890;5.930;2023-04-03T06:49:43;4.73;;;2.93;;
49840;SDS011;35738;49.890;5.930;2023-04-03T06:52:10;6.27;;;2.87;;
49840;SDS011;35738;49.890;5.930;2023-04-03T06:54:38;13.93;;;7.93;;
49840;SDS011;35738;49.890;5.930;2023-04-03T06:57:06;13.60;;;8.97;;
49840;SDS011;35738;49.890;5.930;2023-04-03T06:59:33;4.70;;;4.00;;
49840;SDS011;35738;49.890;5.930;2023-04-03T07:02:01;22.83;;;13.50;;
49840;SDS011;35738;49.890;5.930;2023-04-03T07:04:28;10.70;;;7.10;;
49840;SDS011;35738;49.890;5.930;2023-04-03T07:06:54;5.53;;;2.27;;
49840;SDS011;35738;49.890;5.930;2023-04-03T07:09:21;10.33;;;6.10;;
49840;SDS011;35738;49.890;5.930;2023-04-03T07:11:48;5.20;;;3.67;;
49840;SDS011;35738;49.890;5.930;2023-04-03T07:14:16;2.87;;;2.20;;
49840;SDS011;35738;49.890;5.930;2023-04-03T07:16:42;6.03;;;3.63;;
49840;SDS011;35738;49.890;5.930;2023-04-03T07:19:09;6.43;;;3.60;;
49840;SDS011;35738;49.890;5.930;2023-04-03T07:21:35;5.33;;;2.90;;
49840;SDS011;35738;49.890;5.930;2023-04-03T07:24:02;5.17;;;1.77;;
49840;SDS011;35738;49.890;5.930;2023-04-03T07:26:29;5.37;;;3.73;;
49840;SDS011;35738;49.890;5.930;2023-04-03T07:28:55;3.00;;;2.17;;
49840;SDS011;35738;49.890;5.930;2023-04-03T07:31:22;9.03;;;4.63;;
49840;SDS011;35738;49.890;5.930;2023-04-03T07:33:49;6.30;;;3.87;;
49840;SDS011;35738;49.890;5.930;2023-04-03T07:36:17;3.63;;;2.07;;
49840;SDS011;35738;49.890;5.930;2023-04-03T07:38:45;4.87;;;3.13;;
49840;SDS011;35738;49.890;5.930;2023-04-03T07:41:13;3.47;;;2.30;;
49840;SDS011;35738;49.890;5.930;2023-04-03T07:43:41;6.10;;;3.53;;
49840;SDS011;35738;49.890;5.930;2023-04-03T07:46:08;8.47;;;4.97;;
49840;SDS011;35738;49.890;5.930;2023-04-03T07:48:35;6.57;;;3.50;;
49840;SDS011;35738;49.890;5.930;2023-04-03T07:51:02;5.33;;;1.90;;
49840;SDS011;35738;49.890;5.930;2023-04-03T07:53:30;3.77;;;1.80;;
49840;SDS011;35738;49.890;5.930;2023-04-03T07:55:58;2.03;;;1.70;;
49840;SDS011;35738;49.890;5.930;2023-04-03T07:58:25;5.77;;;2.37;;
49840;SDS011;35738;49.890;5.930;2023-04-03T08:00:51;5.53;;;1.90;;
49840;SDS011;35738;49.890;5.930;2023-04-03T08:03:18;5.87;;;3.50;;
49840;SDS011;35738;49.890;5.930;2023-04-03T08:05:46;3.43;;;2.20;;
49840;SDS011;35738;49.890;5.930;2023-04-03T08:08:15;6.10;;;3.47;;
49840;SDS011;35738;49.890;5.930;2023-04-03T08:10:52;4.83;;;2.80;;
49840;SDS011;35738;49.890;5.930;2023-04-03T08:13:21;4.47;;;3.83;;
49840;SDS011;35738;49.890;5.930;2023-04-03T08:15:47;8.53;;;4.00;;
49840;SDS011;35738;49.890;5.930;2023-04-03T08:18:14;6.23;;;3.00;;
49840;SDS011;35738;49.890;5.930;2023-04-03T08:20:42;7.90;;;4.80;;
49840;SDS011;35738;49.890;5.930;2023-04-03T08:23:09;4.20;;;2.23;;
49840;SDS011;35738;49.890;5.930;2023-04-03T08:25:40;9.73;;;6.10;;
49840;SDS011;35738;49.890;5.930;2023-04-03T08:28:07;11.93;;;7.73;;
49840;SDS011;35738;49.890;5.930;2023-04-03T08:30:34;7.87;;;3.67;;
49840;SDS011;35738;49.890;5.930;2023-04-03T08:33:01;3.67;;;2.47;;
49840;SDS011;35738;49.890;5.930;2023-04-03T08:35:28;2.63;;;2.00;;
49840;SDS011;35738;49.890;5.930;2023-04-03T08:37:55;4.53;;;2.93;;
49840;SDS011;35738;49.890;5.930;2023-04-03T08:40:22;2.87;;;1.83;;
49840;SDS011;35738;49.890;5.930;2023-04-03T08:48:16;5.60;;;3.30;;
49840;SDS011;35738;49.890;5.930;2023-04-03T08:50:45;5.50;;;3.10;;
49840;SDS011;35738;49.890;5.930;2023-04-03T08:53:16;4.77;;;3.37;;
49840;SDS011;35738;49.890;5.930;2023-04-03T08:55:46;6.63;;;2.50;;
49840;SDS011;35738;49.890;5.930;2023-04-03T09:01:51;4.00;;;2.43;;
49840;SDS011;35738;49.890;5.930;2023-04-03T09:04:08;4.07;;;2.30;;
49840;SDS011;35738;49.890;5.930;2023-04-03T09:06:38;4.77;;;2.50;;
49840;SDS011;35738;49.890;5.930;2023-04-03T09:09:13;2.80;;;2.28;;
49840;SDS011;35738;49.890;5.930;2023-04-03T09:17:09;5.07;;;2.03;;
49840;SDS011;35738;49.890;5.930;2023-04-03T09:19:45;4.30;;;2.10;;
49840;SDS011;35738;49.890;5.930;2023-04-03T09:22:21;3.20;;;2.30;;
49840;SDS011;35738;49.890;5.930;2023-04-03T09:27:43;3.33;;;2.07;;
49840;SDS011;35738;49.890;5.930;2023-04-03T09:30:21;3.63;;;2.20;;
49840;SDS011;35738;49.890;5.930;2023-04-03T09:32:54;5.15;;;2.50;;
49840;SDS011;35738;49.890;5.930;2023-04-03T09:35:24;4.60;;;2.20;;
49840;SDS011;35738;49.890;5.930;2023-04-03T09:40:36;4.03;;;2.53;;
49840;SDS011;35738;49.890;5.930;2023-04-03T09:43:19;37.50;;;19.37;;
49840;SDS011;35738;49.890;5.930;2023-04-03T09:45:49;10.67;;;5.87;;
49840;SDS011;35738;49.890;5.930;2023-04-03T09:48:19;28.07;;;13.87;;
49840;SDS011;35738;49.890;5.930;2023-04-03T09:56:03;12.60;;;6.97;;
49840;SDS011;35738;49.890;5.930;2023-04-03T09:58:51;4.03;;;2.30;;
49840;SDS011;35738;49.890;5.930;2023-04-03T10:01:33;3.20;;;2.90;;
49840;SDS011;35738;49.890;5.930;2023-04-03T10:04:19;4.90;;;2.73;;
49840;SDS011;35738;49.890;5.930;2023-04-03T10:09:18;2.60;;;2.08;;
49840;SDS011;35738;49.890;5.930;2023-04-03T10:11:59;2.55;;;2.35;;
49840;SDS011;35738;49.890;5.930;2023-04-03T10:14:34;2.53;;;2.10;;
49840;SDS011;35738;49.890;5.930;2023-04-03T10:20:17;3.28;;;1.98;;
49840;SDS011;35738;49.890;5.930;2023-04-03T10:23:13;3.40;;;2.10;;
49840;SDS011;35738;49.890;5.930;2023-04-03T10:25:46;4.25;;;1.90;;
49840;SDS011;35738;49.890;5.930;2023-04-03T10:34:35;2.92;;;2.20;;
49840;SDS011;35738;49.890;5.930;2023-04-03T10:37:12;6.18;;;2.58;;
49840;SDS011;35738;49.890;5.930;2023-04-03T10:42:31;3.00;;;1.90;;
49840;SDS011;35738;49.890;5.930;2023-04-03T10:53:13;3.28;;;1.80;;
49840;SDS011;35738;49.890;5.930;2023-04-03T10:58:50;2.75;;;1.70;;
49840;SDS011;35738;49.890;5.930;2023-04-03T11:01:22;4.93;;;1.70;;
49840;SDS011;35738;49.890;5.930;2023-04-03T11:03:56;2.08;;;1.67;;
49840;SDS011;35738;49.890;5.930;2023-04-03T11:06:24;1.90;;;1.80;;
49840;SDS011;35738;49.890;5.930;2023-04-03T11:08:59;5.78;;;2.00;;
49840;SDS011;35738;49.890;5.930;2023-04-03T11:11:33;3.10;;;2.00;;
49840;SDS011;35738;49.890;5.930;2023-04-03T11:17:33;2.47;;;1.65;;
49840;SDS011;35738;49.890;5.930;2023-04-03T11:22:56;4.00;;;1.50;;
49840;SDS011;35738;49.890;5.930;2023-04-03T11:25:27;2.47;;;1.80;;
49840;SDS011;35738;49.890;5.930;2023-04-03T11:27:57;3.15;;;1.60;;
49840;SDS011;35738;49.890;5.930;2023-04-03T11:30:47;3.03;;;1.65;;
49840;SDS011;35738;49.890;5.930;2023-04-03T11:39:00;2.33;;;1.60;;
49840;SDS011;35738;49.890;5.930;2023-04-03T11:41:33;5.43;;;2.03;;
49840;SDS011;35738;49.890;5.930;2023-04-03T11:44:05;2.00;;;1.50;;
49840;SDS011;35738;49.890;5.930;2023-04-03T11:46:56;3.13;;;1.80;;
49840;SDS011;35738;49.890;5.930;2023-04-03T12:05:51;17.23;;;9.98;;
49840;SDS011;35738;49.890;5.930;2023-04-03T12:13:37;13.25;;;7.40;;
49840;SDS011;35738;49.890;5.930;2023-04-03T12:16:23;2.10;;;1.52;;
49840;SDS011;35738;49.890;5.930;2023-04-03T12:21:21;29.77;;;14.95;;
49840;SDS011;35738;49.890;5.930;2023-04-03T12:29:46;2.78;;;1.80;;
49840;SDS011;35738;49.890;5.930;2023-04-03T12:32:24;2.60;;;1.50;;
49840;SDS011;35738;49.890;5.930;2023-04-03T12:46:42;3.75;;;2.08;;
49840;SDS011;35738;49.890;5.930;2023-04-03T12:49:14;3.50;;;1.77;;
49840;SDS011;35738;49.890;5.930;2023-04-03T12:51:50;2.40;;;1.55;;
49840;SDS011;35738;49.890;5.930;2023-04-03T12:54:22;6.50;;;2.88;;
49840;SDS011;35738;49.890;5.930;2023-04-03T12:57:08;3.30;;;1.55;;
49840;SDS011;35738;49.890;5.930;2023-04-03T12:59:46;3.00;;;1.75;;
49840;SDS011;35738;49.890;5.930;2023-04-03T13:02:23;4.57;;;1.65;;
49840;SDS011;35738;49.890;5.930;2023-04-03T13:04:58;3.15;;;1.73;;
49840;SDS011;35738;49.890;5.930;2023-04-03T13:07:36;2.53;;;1.33;;
49840;SDS011;35738;49.890;5.930;2023-04-03T13:12:51;2.83;;;1.42;;
49840;SDS011;35738;49.890;5.930;2023-04-03T13:17:47;1.80;;;1.20;;
49840;SDS011;35738;49.890;5.930;2023-04-03T13:23:05;5.10;;;1.88;;
49840;SDS011;35738;49.890;5.930;2023-04-03T13:25:35;3.08;;;1.58;;
49840;SDS011;35738;49.890;5.930;2023-04-03T13:28:07;4.60;;;2.55;;
49840;SDS011;35738;49.890;5.930;2023-04-03T13:30:40;5.60;;;3.58;;
49840;SDS011;35738;49.890;5.930;2023-04-03T13:33:21;3.65;;;2.78;;
49840;SDS011;35738;49.890;5.930;2023-04-03T13:35:57;3.38;;;1.50;;
49840;SDS011;35738;49.890;5.930;2023-04-03T13:38:28;2.13;;;1.45;;
49840;SDS011;35738;49.890;5.930;2023-04-03T13:41:02;3.05;;;2.40;;
49840;SDS011;35738;49.890;5.930;2023-04-03T13:43:32;2.15;;;1.27;;
49840;SDS011;35738;49.890;5.930;2023-04-03T13:48:41;3.00;;;2.30;;
49840;SDS011;35738;49.890;5.930;2023-04-03T13:53:47;3.75;;;1.52;;
49840;SDS011;35738;49.890;5.930;2023-04-03T13:56:23;3.22;;;1.40;;
49840;SDS011;35738;49.890;5.930;2023-04-03T13:58:54;1.90;;;1.23;;
49840;SDS011;35738;49.890;5.930;2023-04-03T14:04:13;3.17;;;1.40;;
49840;SDS011;35738;49.890;5.930;2023-04-03T14:06:51;3.85;;;1.50;;
49840;SDS011;35738;49.890;5.930;2023-04-03T14:09:19;3.38;;;1.35;;
49840;SDS011;35738;49.890;5.930;2023-04-03T14:11:48;2.10;;;1.60;;
49840;SDS011;35738;49.890;5.930;2023-04-03T14:14:20;3.65;;;2.00;;
49840;SDS011;35738;49.890;5.930;2023-04-03T14:16:53;2.03;;;1.20;;
49840;SDS011;35738;49.890;5.930;2023-04-03T14:19:23;2.33;;;1.30;;
49840;SDS011;35738;49.890;5.930;2023-04-03T14:21:52;1.88;;;1.00;;
49840;SDS011;35738;49.890;5.930;2023-04-03T14:24:20;3.67;;;1.40;;
49840;SDS011;35738;49.890;5.930;2023-04-03T14:26:50;4.15;;;1.50;;
49840;SDS011;35738;49.890;5.930;2023-04-03T14:29:21;4.18;;;2.42;;
49840;SDS011;35738;49.890;5.930;2023-04-03T14:31:48;2.65;;;2.03;;
49840;SDS011;35738;49.890;5.930;2023-04-03T14:34:25;11.32;;;3.10;;
49840;SDS011;35738;49.890;5.930;2023-04-03T14:36:52;3.13;;;1.42;;
49840;SDS011;35738;49.890;5.930;2023-04-03T14:39:18;3.25;;;1.50;;
49840;SDS011;35738;49.890;5.930;2023-04-03T14:41:46;2.03;;;1.50;;
49840;SDS011;35738;49.890;5.930;2023-04-03T14:44:13;2.83;;;1.23;;
49840;SDS011;35738;49.890;5.930;2023-04-03T14:46:41;3.40;;;1.55;;
49840;SDS011;35738;49.890;5.930;2023-04-03T14:49:21;1.52;;;1.42;;
49840;SDS011;35738;49.890;5.930;2023-04-03T14:51:50;1.55;;;1.45;;
49840;SDS011;35738;49.890;5.930;2023-04-03T14:54:19;2.10;;;1.17;;
49840;SDS011;35738;49.890;5.930;2023-04-03T14:56:54;3.50;;;1.40;;
49840;SDS011;35738;49.890;5.930;2023-04-03T14:59:23;3.47;;;1.60;;
49840;SDS011;35738;49.890;5.930;2023-04-03T15:01:49;2.65;;;1.60;;
49840;SDS011;35738;49.890;5.930;2023-04-03T15:04:17;1.85;;;1.48;;
49840;SDS011;35738;49.890;5.930;2023-04-03T15:06:47;3.25;;;1.58;;
49840;SDS011;35738;49.890;5.930;2023-04-03T15:11:49;3.60;;;1.60;;
49840;SDS011;35738;49.890;5.930;2023-04-03T15:14:17;3.83;;;1.60;;
49840;SDS011;35738;49.890;5.930;2023-04-03T15:17:02;2.70;;;1.40;;
49840;SDS011;35738;49.890;5.930;2023-04-03T15:19:35;2.47;;;1.40;;
49840;SDS011;35738;49.890;5.930;2023-04-03T15:22:03;3.45;;;1.45;;
49840;SDS011;35738;49.890;5.930;2023-04-03T15:24:29;8.32;;;1.67;;
49840;SDS011;35738;49.890;5.930;2023-04-03T15:26:56;2.50;;;1.70;;
49840;SDS011;35738;49.890;5.930;2023-04-03T15:29:23;3.22;;;1.35;;
49840;SDS011;35738;49.890;5.930;2023-04-03T15:31:49;24.88;;;14.10;;
49840;SDS011;35738;49.890;5.930;2023-04-03T15:34:19;2.63;;;1.65;;
49840;SDS011;35738;49.890;5.930;2023-04-03T15:36:47;1.48;;;1.30;;
49840;SDS011;35738;49.890;5.930;2023-04-03T15:39:14;4.03;;;1.73;;
49840;SDS011;35738;49.890;5.930;2023-04-03T15:41:43;1.50;;;1.40;;
49840;SDS011;35738;49.890;5.930;2023-04-03T15:44:11;6.53;;;1.70;;
49840;SDS011;35738;49.890;5.930;2023-04-03T15:46:38;4.10;;;1.60;;
49840;SDS011;35738;49.890;5.930;2023-04-03T15:49:05;1.52;;;1.42;;
49840;SDS011;35738;49.890;5.930;2023-04-03T15:51:32;2.30;;;1.50;;
49840;SDS011;35738;49.890;5.930;2023-04-03T15:53:58;5.63;;;2.45;;
49840;SDS011;35738;49.890;5.930;2023-04-03T15:56:25;2.78;;;1.50;;
49840;SDS011;35738;49.890;5.930;2023-04-03T15:58:51;3.78;;;1.67;;
49840;SDS011;35738;49.890;5.930;2023-04-03T16:01:18;2.67;;;1.50;;
49840;SDS011;35738;49.890;5.930;2023-04-03T16:03:44;2.80;;;1.60;;
49840;SDS011;35738;49.890;5.930;2023-04-03T16:06:12;2.28;;;1.38;;
49840;SDS011;35738;49.890;5.930;2023-04-03T16:08:40;4.50;;;2.00;;
49840;SDS011;35738;49.890;5.930;2023-04-03T16:11:08;3.90;;;1.58;;
49840;SDS011;35738;49.890;5.930;2023-04-03T16:13:35;4.63;;;1.85;;
49840;SDS011;35738;49.890;5.930;2023-04-03T16:16:01;2.65;;;1.58;;
49840;SDS011;35738;49.890;5.930;2023-04-03T16:18:28;2.80;;;1.63;;
49840;SDS011;35738;49.890;5.930;2023-04-03T16:20:55;3.10;;;1.70;;
49840;SDS011;35738;49.890;5.930;2023-04-03T16:23:22;2.72;;;1.40;;
49840;SDS011;35738;49.890;5.930;2023-04-03T16:25:49;1.67;;;1.40;;
49840;SDS011;35738;49.890;5.930;2023-04-03T16:28:17;3.72;;;1.70;;
49840;SDS011;35738;49.890;5.930;2023-04-03T16:30:44;2.35;;;1.52;;
49840;SDS011;35738;49.890;5.930;2023-04-03T16:33:12;1.85;;;1.55;;
49840;SDS011;35738;49.890;5.930;2023-04-03T16:35:39;2.70;;;1.52;;
49840;SDS011;35738;49.890;5.930;2023-04-03T16:38:08;2.40;;;1.52;;
49840;SDS011;35738;49.890;5.930;2023-04-03T16:40:34;2.55;;;1.50;;
49840;SDS011;35738;49.890;5.930;2023-04-03T16:43:01;4.63;;;1.85;;
49840;SDS011;35738;49.890;5.930;2023-04-03T16:45:28;3.72;;;1.55;;
49840;SDS011;35738;49.890;5.930;2023-04-03T16:47:54;2.80;;;1.27;;
49840;SDS011;35738;49.890;5.930;2023-04-03T16:50:21;2.50;;;1.50;;
49840;SDS011;35738;49.890;5.930;2023-04-03T16:52:48;2.75;;;1.60;;
49840;SDS011;35738;49.890;5.930;2023-04-03T16:55:14;2.45;;;1.60;;
49840;SDS011;35738;49.890;5.930;2023-04-03T16:57:41;3.20;;;1.65;;
49840;SDS011;35738;49.890;5.930;2023-04-03T17:00:08;3.38;;;2.03;;
49840;SDS011;35738;49.890;5.930;2023-04-03T17:02:35;2.80;;;1.50;;
49840;SDS011;35738;49.890;5.930;2023-04-03T17:05:01;3.05;;;1.52;;
49840;SDS011;35738;49.890;5.930;2023-04-03T17:07:29;2.55;;;1.45;;